createdAt,value
2022-10-25T00:01:21.977Z,90.30
2022-10-25T00:03:49.984Z,90.40
2022-10-25T00:06:18.421Z,90.55
2022-10-25T00:08:46.394Z,90.78
2022-10-25T00:11:21.139Z,91.79
2022-10-25T00:13:50.043Z,91.70
2022-10-25T00:16:21.115Z,91.66
2022-10-25T00:18:49.084Z,92.58
2022-10-25T00:21:17.007Z,92.28
2022-10-25T00:23:44.955Z,92.92
2022-10-25T00:26:16.742Z,93.24
2022-10-25T00:28:46.429Z,93.11
2022-10-25T00:31:15.667Z,94.26
2022-10-25T00:33:44.545Z,94.24
2022-10-25T00:36:14.817Z,94.82
2022-10-25T00:38:43.023Z,94.60
2022-10-25T00:41:11.766Z,95.19
2022-10-25T00:43:47.996Z,95.28
2022-10-25T00:46:21.850Z,95.35
2022-10-25T00:48:55.256Z,96.09
2022-10-25T00:51:27.323Z,96.40
2022-10-25T00:53:55.928Z,96.12
2022-10-25T00:56:26.718Z,96.23
2022-10-25T00:59:00.561Z,96.69
2022-10-25T01:01:28.665Z,96.25
2022-10-25T01:04:02.552Z,97.43
2022-10-25T01:06:35.515Z,96.62
2022-10-25T01:09:04.174Z,96.64
2022-10-25T01:11:32.222Z,96.51
2022-10-25T01:14:01.649Z,96.33
2022-10-25T01:16:36.153Z,95.98
2022-10-25T01:19:17.742Z,94.96
2022-10-25T01:21:51.225Z,95.21
2022-10-25T01:25:00.554Z,94.18
2022-10-25T01:28:02.271Z,93.68
2022-10-25T01:30:54.701Z,93.36
2022-10-25T01:33:30.190Z,93.09
2022-10-25T01:36:07.798Z,92.83
2022-10-25T01:38:42.909Z,92.45
2022-10-25T01:41:22.729Z,92.01
2022-10-25T01:44:06.956Z,92.53
2022-10-25T01:46:45.145Z,92.87
2022-10-25T01:49:17.987Z,92.84
2022-10-25T01:51:45.949Z,92.15
2022-10-25T01:54:22.095Z,92.76
2022-10-25T01:57:00.227Z,91.87
2022-10-25T01:59:51.958Z,91.83
2022-10-25T02:02:27.586Z,92.10
2022-10-25T02:05:09.340Z,92.76
2022-10-25T02:07:40.006Z,93.72
2022-10-25T02:10:11.832Z,93.24
2022-10-25T02:12:48.901Z,93.57
2022-10-25T02:15:22.731Z,93.75
2022-10-25T02:17:59.215Z,93.04
2022-10-25T02:20:31.424Z,93.43
2022-10-25T02:23:02.148Z,93.66
2022-10-25T02:25:31.713Z,93.88
2022-10-25T02:28:01.900Z,94.32
2022-10-25T02:30:32.932Z,94.20
2022-10-25T02:33:02.633Z,93.90
2022-10-25T02:35:30.748Z,94.45
2022-10-25T02:37:58.744Z,95.17
2022-10-25T02:40:26.695Z,94.33
2022-10-25T02:42:54.473Z,93.94
2022-10-25T02:45:22.454Z,93.84
2022-10-25T02:47:50.370Z,94.73
2022-10-25T02:50:19.836Z,94.38
2022-10-25T02:52:48.015Z,95.01
2022-10-25T02:55:16.176Z,94.68
2022-10-25T02:57:44.000Z,94.31
2022-10-25T03:02:46.302Z,92.96
2022-10-25T03:05:14.314Z,92.94
2022-10-25T03:07:43.567Z,92.10
2022-10-25T03:10:11.369Z,93.00
2022-10-25T03:12:39.420Z,93.18
2022-10-25T03:15:09.096Z,93.17
2022-10-25T03:17:37.033Z,93.03
2022-10-25T03:20:05.505Z,92.63
2022-10-25T03:22:33.366Z,92.60
2022-10-25T03:25:02.763Z,92.70
2022-10-25T03:27:30.940Z,92.88
2022-10-25T03:29:58.817Z,93.07
2022-10-25T03:32:26.659Z,91.92
2022-10-25T03:34:55.004Z,92.05
2022-10-25T03:37:22.927Z,91.47
2022-10-25T03:39:50.740Z,91.63
2022-10-25T03:42:20.347Z,90.54
2022-10-25T03:44:49.040Z,89.84
2022-10-25T03:47:16.964Z,89.40
2022-10-25T03:49:45.382Z,89.76
2022-10-25T03:52:13.291Z,89.85
2022-10-25T03:54:42.355Z,89.48
2022-10-25T03:57:10.737Z,88.97
2022-10-25T03:59:40.008Z,88.76
2022-10-25T04:02:07.965Z,88.54
2022-10-25T04:04:36.094Z,88.88
2022-10-25T04:07:05.069Z,88.08
2022-10-25T04:09:33.180Z,86.92
2022-10-25T04:12:01.168Z,86.66
2022-10-25T04:14:29.036Z,87.86
2022-10-25T04:16:58.215Z,86.55
2022-10-25T04:19:26.164Z,87.48
2022-10-25T04:21:54.031Z,86.74
2022-10-25T04:24:22.716Z,86.99
2022-10-25T04:26:50.885Z,86.90
2022-10-25T04:29:18.699Z,87.20
2022-10-25T04:31:46.625Z,86.72
2022-10-25T04:34:15.947Z,86.84
2022-10-25T04:36:43.847Z,86.48
2022-10-25T04:39:11.919Z,86.75
2022-10-25T04:41:39.808Z,86.54
2022-10-25T04:44:07.595Z,86.32
2022-10-25T04:46:35.407Z,86.17
2022-10-25T04:49:03.325Z,85.81
2022-10-25T04:51:32.551Z,85.99
2022-10-25T04:54:00.407Z,85.91
2022-10-25T04:56:30.061Z,85.67
2022-10-25T04:58:59.235Z,86.60
2022-10-25T05:01:27.197Z,86.14
2022-10-25T05:03:55.342Z,86.99
2022-10-25T05:06:25.424Z,87.23
2022-10-25T05:08:55.758Z,87.23
2022-10-25T05:11:25.541Z,87.50
2022-10-25T05:13:54.062Z,88.66
2022-10-25T05:16:25.024Z,87.60
2022-10-25T05:18:55.439Z,86.98
2022-10-25T05:24:02.517Z,86.95
2022-10-25T05:26:31.050Z,87.49
2022-10-25T05:28:59.299Z,87.30
2022-10-25T05:31:28.799Z,87.79
2022-10-25T05:33:58.970Z,87.75
2022-10-25T05:36:28.454Z,88.32
2022-10-25T05:38:56.831Z,88.56
2022-10-25T05:41:26.651Z,87.91
2022-10-25T05:43:54.660Z,88.10
2022-10-25T05:46:24.822Z,88.08
2022-10-25T05:48:53.925Z,88.28
2022-10-25T05:51:39.332Z,87.78
2022-10-25T05:54:11.085Z,87.81
2022-10-25T05:56:41.195Z,87.63
2022-10-25T05:59:11.096Z,87.78
2022-10-25T06:01:40.615Z,87.84
2022-10-25T06:04:09.402Z,87.67
2022-10-25T06:06:39.531Z,87.94
2022-10-25T06:09:08.407Z,88.51
2022-10-25T06:11:36.614Z,88.04
2022-10-25T06:14:07.165Z,87.88
2022-10-25T06:16:35.216Z,87.94
2022-10-25T06:19:03.751Z,88.28
2022-10-25T06:21:31.892Z,87.97
2022-10-25T06:24:00.416Z,87.84
2022-10-25T06:26:30.369Z,88.11
2022-10-25T06:29:00.337Z,88.34
2022-10-25T06:31:30.633Z,88.52
2022-10-25T06:34:00.112Z,89.21
2022-10-25T06:36:28.848Z,89.33
2022-10-25T06:38:57.553Z,89.05
2022-10-25T06:41:29.104Z,89.37
2022-10-25T06:43:57.057Z,90.98
2022-10-25T06:46:27.211Z,91.48
2022-10-25T06:48:58.492Z,91.72
2022-10-25T06:51:27.899Z,91.79
2022-10-25T06:53:56.187Z,91.74
2022-10-25T06:56:24.705Z,91.19
2022-10-25T06:58:52.595Z,91.46
2022-10-25T07:01:23.803Z,91.98
2022-10-25T07:03:54.201Z,92.54
2022-10-25T07:06:26.411Z,91.58
2022-10-25T07:08:56.137Z,92.69
2022-10-25T07:11:25.647Z,92.03
2022-10-25T07:13:53.743Z,92.05
2022-10-25T07:16:22.467Z,92.43
2022-10-25T07:18:50.561Z,91.73
2022-10-25T07:21:20.233Z,91.18
2022-10-25T07:23:51.066Z,91.36
2022-10-25T07:26:21.084Z,91.38
2022-10-25T07:28:50.277Z,91.12
2022-10-25T07:31:20.397Z,91.53
2022-10-25T07:33:48.469Z,90.73
2022-10-25T07:36:16.463Z,90.23
2022-10-25T07:38:44.432Z,90.72
2022-10-25T07:41:13.955Z,89.71
2022-10-25T07:43:41.983Z,90.39
2022-10-25T07:46:10.403Z,90.28
2022-10-25T07:48:38.250Z,90.90
2022-10-25T07:51:07.710Z,90.31
2022-10-25T07:53:35.743Z,90.56
2022-10-25T07:56:04.086Z,89.78
2022-10-25T07:58:33.450Z,88.53
2022-10-25T08:01:03.077Z,89.06
2022-10-25T08:03:31.381Z,89.84
2022-10-25T08:05:59.708Z,89.24
2022-10-25T08:08:27.824Z,89.04
2022-10-25T08:10:56.859Z,89.74
2022-10-25T08:13:25.110Z,90.75
2022-10-25T08:15:56.251Z,89.78
2022-10-25T08:18:25.055Z,89.30
2022-10-25T08:21:08.250Z,88.22
2022-10-25T08:23:37.105Z,88.50
2022-10-25T08:26:04.916Z,87.98
2022-10-25T08:28:32.766Z,87.58
2022-10-25T08:31:02.291Z,87.54
2022-10-25T08:33:30.521Z,87.22
2022-10-25T08:36:01.464Z,87.22
2022-10-25T08:38:31.082Z,87.08
2022-10-25T08:41:07.036Z,87.07
2022-10-25T08:46:39.305Z,87.76
2022-10-25T08:49:16.256Z,86.09
2022-10-25T08:51:48.057Z,86.17
2022-10-25T08:54:24.165Z,86.15
2022-10-25T08:57:14.651Z,86.32
2022-10-25T08:59:46.716Z,85.75
2022-10-25T09:02:21.402Z,85.86
2022-10-25T09:04:49.874Z,85.82
2022-10-25T09:07:52.814Z,85.61
2022-10-25T09:10:32.098Z,85.51
2022-10-25T09:13:10.472Z,85.25
2022-10-25T09:15:55.946Z,83.24
2022-10-25T09:18:37.135Z,81.58
2022-10-25T09:21:14.903Z,82.12
2022-10-25T09:23:59.016Z,81.29
2022-10-25T09:26:42.292Z,81.03
2022-10-25T09:29:18.741Z,81.89
2022-10-25T09:31:52.584Z,80.72
2022-10-25T09:34:24.384Z,80.61
2022-10-25T09:36:58.846Z,78.37
2022-10-25T09:39:35.482Z,78.23
2022-10-25T09:42:05.485Z,78.65
2022-10-25T09:44:43.285Z,78.92
2022-10-25T09:47:19.160Z,78.47
2022-10-25T09:49:57.506Z,76.63
2022-10-25T09:52:31.345Z,77.95
2022-10-25T09:55:08.694Z,78.38
2022-10-25T09:57:36.780Z,77.73
2022-10-25T10:00:07.784Z,76.97
2022-10-25T10:02:35.807Z,76.96
2022-10-25T10:05:05.461Z,76.35
2022-10-25T10:07:36.796Z,76.75
2022-10-25T10:10:09.062Z,76.90
2022-10-25T10:12:46.726Z,76.97
2022-10-25T10:15:24.124Z,76.83
2022-10-25T10:18:23.167Z,76.79
2022-10-25T10:21:08.025Z,75.81
2022-10-25T10:23:45.325Z,75.95
2022-10-25T10:26:24.956Z,75.94
2022-10-25T10:28:57.173Z,76.35
2022-10-25T10:31:25.296Z,75.91
2022-10-25T10:33:53.658Z,75.03
2022-10-25T10:36:25.735Z,74.40
2022-10-25T10:38:54.653Z,74.79
2022-10-25T10:41:27.083Z,75.07
2022-10-25T10:44:10.802Z,74.12
2022-10-25T10:46:46.022Z,73.76
2022-10-25T10:49:15.774Z,73.46
2022-10-25T10:51:49.182Z,72.34
2022-10-25T10:54:25.443Z,71.33
2022-10-25T10:56:59.056Z,71.66
2022-10-25T10:59:36.025Z,71.63
2022-10-25T11:02:21.854Z,70.79
2022-10-25T11:04:50.626Z,69.86
2022-10-25T11:07:29.185Z,70.03
2022-10-25T11:10:29.510Z,68.82
2022-10-25T11:13:09.206Z,68.67
2022-10-25T11:15:50.795Z,68.53
2022-10-25T11:18:27.272Z,68.42
2022-10-25T11:21:00.420Z,68.72
2022-10-25T11:23:37.593Z,68.49
2022-10-25T11:26:14.730Z,68.01
2022-10-25T11:28:50.578Z,68.84
2022-10-25T11:31:24.860Z,68.53
2022-10-25T11:34:07.843Z,66.25
2022-10-25T11:36:54.335Z,65.58
2022-10-25T11:39:38.255Z,65.41
2022-10-25T11:42:21.782Z,66.03
2022-10-25T11:45:18.250Z,65.89
2022-10-25T11:47:59.996Z,67.22
2022-10-25T11:50:34.950Z,67.67
2022-10-25T11:53:19.408Z,67.72
2022-10-25T11:55:54.620Z,66.33
2022-10-25T11:58:37.028Z,65.68
2022-10-25T12:01:16.405Z,65.11
2022-10-25T12:04:09.968Z,62.92
2022-10-25T12:06:47.439Z,62.26
2022-10-25T12:09:27.115Z,60.65
2022-10-25T12:12:02.747Z,60.49
2022-10-25T12:14:35.812Z,59.47
2022-10-25T12:17:08.414Z,59.52
2022-10-25T12:19:45.268Z,59.35
2022-10-25T12:22:19.016Z,59.79
2022-10-25T12:24:52.043Z,59.58
2022-10-25T12:27:23.734Z,59.67
2022-10-25T12:29:57.026Z,58.98
2022-10-25T12:32:33.275Z,59.25
2022-10-25T12:35:04.446Z,60.04
2022-10-25T12:37:39.186Z,59.32
2022-10-25T12:40:08.813Z,59.76
2022-10-25T12:42:45.963Z,59.22
2022-10-25T12:45:42.482Z,59.33
2022-10-25T12:48:27.196Z,60.08
2022-10-25T12:51:15.248Z,61.36
2022-10-25T12:54:16.672Z,62.00
2022-10-25T12:56:55.963Z,61.71
2022-10-25T12:59:40.968Z,60.32
2022-10-25T13:02:26.723Z,60.95
2022-10-25T13:05:34.761Z,62.03
2022-10-25T13:08:06.011Z,61.28
2022-10-25T13:10:40.788Z,61.54
2022-10-25T13:13:19.157Z,60.56
2022-10-25T13:15:51.426Z,60.63
2022-10-25T13:18:40.449Z,59.73
2022-10-25T13:21:10.221Z,60.03
2022-10-25T13:24:06.427Z,59.60
2022-10-25T13:26:53.998Z,60.06
2022-10-25T13:29:48.761Z,60.25
2022-10-25T13:32:20.903Z,61.54
2022-10-25T13:34:49.196Z,61.80
2022-10-25T13:37:43.325Z,61.13
2022-10-25T13:40:23.618Z,61.44
2022-10-25T13:43:02.286Z,61.96
2022-10-25T13:45:41.782Z,62.08
2022-10-25T13:48:30.271Z,62.64
2022-10-25T13:51:00.620Z,62.71
2022-10-25T13:53:36.230Z,63.28
2022-10-25T13:56:07.403Z,63.49
2022-10-25T13:58:45.396Z,62.95
2022-10-25T14:01:55.982Z,62.53
2022-10-25T14:04:36.104Z,62.92
2022-10-25T14:07:41.358Z,62.26
2022-10-25T14:12:49.969Z,63.82
2022-10-25T14:15:30.298Z,63.68
2022-10-25T14:17:59.711Z,64.09
2022-10-25T14:20:31.497Z,64.17
2022-10-25T14:23:02.881Z,64.47
2022-10-25T14:25:35.940Z,64.69
2022-10-25T14:28:08.878Z,65.58
2022-10-25T14:30:41.061Z,65.98
2022-10-25T14:33:23.111Z,65.93
2022-10-25T14:35:54.313Z,66.41
2022-10-25T14:38:24.595Z,66.96
2022-10-25T14:40:54.347Z,67.26
2022-10-25T14:43:28.121Z,68.12
2022-10-25T14:46:05.268Z,67.87
2022-10-25T14:48:34.207Z,68.36
2022-10-25T14:51:07.256Z,68.13
2022-10-25T14:53:37.562Z,68.46
2022-10-25T14:56:07.076Z,68.90
2022-10-25T14:58:41.834Z,68.65
2022-10-25T15:01:12.390Z,69.53
2022-10-25T15:03:44.266Z,69.57
2022-10-25T15:06:15.860Z,69.91
2022-10-25T15:08:51.802Z,69.56
2022-10-25T15:11:21.256Z,70.44
2022-10-25T15:13:51.343Z,70.51
2022-10-25T15:16:31.741Z,71.14
2022-10-25T15:19:19.304Z,71.61
2022-10-25T15:21:52.709Z,71.55
2022-10-25T15:24:23.593Z,71.36
2022-10-25T15:26:56.529Z,71.25
2022-10-25T15:32:25.488Z,71.41
2022-10-25T15:34:55.434Z,71.07
2022-10-25T15:37:26.700Z,71.52
2022-10-25T15:39:58.156Z,71.67
2022-10-25T15:42:27.914Z,71.48
2022-10-25T15:44:55.842Z,71.87
2022-10-25T15:47:35.727Z,72.40
2022-10-25T15:50:11.814Z,72.92
2022-10-25T15:52:41.193Z,73.30
2022-10-25T15:55:19.592Z,74.04
2022-10-25T15:57:48.137Z,74.22
2022-10-25T16:00:17.430Z,74.59
2022-10-25T16:02:45.916Z,74.77
2022-10-25T16:05:20.173Z,74.80
2022-10-25T16:07:49.538Z,74.92
2022-10-25T16:10:17.969Z,74.95
2022-10-25T16:12:48.859Z,75.05
2022-10-25T16:15:18.841Z,74.71
2022-10-25T16:17:49.061Z,75.18
2022-10-25T16:20:19.787Z,75.49
2022-10-25T16:22:50.271Z,75.28
2022-10-25T16:25:19.430Z,75.97
2022-10-25T16:27:48.647Z,76.05
2022-10-25T16:30:20.057Z,75.69
2022-10-25T16:32:48.634Z,75.88
2022-10-25T16:35:19.142Z,75.52
2022-10-25T16:37:47.360Z,76.00
2022-10-25T16:40:18.081Z,75.82
2022-10-25T16:42:46.935Z,76.03
2022-10-25T16:45:19.096Z,75.51
2022-10-25T16:47:47.201Z,75.24
2022-10-25T16:50:16.754Z,75.21
2022-10-25T16:52:45.137Z,74.83
2022-10-25T16:55:13.574Z,75.39
2022-10-25T16:57:43.558Z,75.00
2022-10-25T17:00:12.750Z,75.30
2022-10-25T17:02:40.877Z,75.08
2022-10-25T17:05:15.292Z,75.22
2022-10-25T17:07:45.926Z,75.82
2022-10-25T17:10:14.432Z,75.47
2022-10-25T17:12:49.569Z,75.77
2022-10-25T17:15:18.586Z,75.90
2022-10-25T17:17:46.935Z,75.38
2022-10-25T17:20:17.363Z,75.23
2022-10-25T17:22:48.279Z,75.28
2022-10-25T17:25:16.645Z,75.02
2022-10-25T17:27:48.018Z,75.07
2022-10-25T17:30:17.349Z,74.91
2022-10-25T17:32:45.215Z,74.83
2022-10-25T17:35:13.639Z,74.83
2022-10-25T17:37:43.666Z,75.42
2022-10-25T17:40:13.758Z,75.30
2022-10-25T17:42:41.630Z,74.82
2022-10-25T17:45:14.331Z,75.48
2022-10-25T17:47:43.806Z,76.06
2022-10-25T17:50:12.953Z,75.90
2022-10-25T17:52:42.376Z,75.96
2022-10-25T17:55:11.602Z,75.96
2022-10-25T17:57:39.594Z,76.04
2022-10-25T18:00:08.801Z,76.00
2022-10-25T18:02:38.437Z,76.35
2022-10-25T18:05:19.774Z,76.32
2022-10-25T18:07:49.096Z,76.43
2022-10-25T18:10:17.494Z,76.47
2022-10-25T18:12:45.675Z,77.09
2022-10-25T18:15:13.740Z,77.43
2022-10-25T18:17:46.598Z,77.37
2022-10-25T18:20:18.191Z,77.62
2022-10-25T18:22:46.315Z,77.37
2022-10-25T18:25:14.220Z,77.33
2022-10-25T18:27:42.163Z,77.38
2022-10-25T18:30:12.205Z,77.18
2022-10-25T18:32:40.107Z,77.01
2022-10-25T18:35:10.513Z,76.59
2022-10-25T18:37:38.537Z,77.35
2022-10-25T18:40:08.201Z,77.58
2022-10-25T18:42:36.252Z,78.08
2022-10-25T18:45:05.800Z,78.19
2022-10-25T18:47:35.638Z,78.62
2022-10-25T18:50:03.503Z,78.62
2022-10-25T18:52:32.980Z,79.04
2022-10-25T18:55:00.958Z,79.21
2022-10-25T18:57:30.705Z,78.78
2022-10-25T18:59:58.861Z,78.98
2022-10-25T19:02:26.911Z,78.99
2022-10-25T19:04:55.291Z,79.37
2022-10-25T19:07:26.046Z,79.30
2022-10-25T19:09:55.276Z,79.55
2022-10-25T19:12:23.222Z,80.21
2022-10-25T19:14:51.423Z,80.23
2022-10-25T19:17:19.395Z,80.55
2022-10-25T19:19:47.332Z,81.28
2022-10-25T19:22:15.939Z,81.37
2022-10-25T19:24:43.824Z,81.09
2022-10-25T19:27:13.088Z,81.48
2022-10-25T19:29:41.337Z,81.94
2022-10-25T19:32:09.496Z,82.29
2022-10-25T19:34:38.091Z,82.50
2022-10-25T19:37:08.009Z,82.35
2022-10-25T19:39:36.049Z,82.66
2022-10-25T19:42:03.932Z,82.77
2022-10-25T19:44:33.675Z,82.77
2022-10-25T19:47:01.551Z,82.79
2022-10-25T19:49:29.452Z,83.20
2022-10-25T19:51:57.431Z,83.53
2022-10-25T19:54:25.731Z,83.43
2022-10-25T19:56:55.270Z,83.86
2022-10-25T19:59:23.362Z,84.36
2022-10-25T20:01:52.699Z,84.52
2022-10-25T20:04:20.696Z,84.70
2022-10-25T20:06:48.702Z,84.73
2022-10-25T20:09:16.527Z,84.29
2022-10-25T20:11:44.421Z,84.44
2022-10-25T20:14:12.479Z,84.46
2022-10-25T20:16:40.517Z,84.44
2022-10-25T20:19:16.712Z,85.38
2022-10-25T20:21:44.899Z,85.42
2022-10-25T20:24:12.823Z,85.34
2022-10-25T20:26:44.911Z,85.50
2022-10-25T20:29:20.344Z,85.55
2022-10-25T20:31:50.645Z,85.24
2022-10-25T20:34:20.896Z,85.59
2022-10-25T20:36:49.663Z,85.37
2022-10-25T20:39:20.231Z,85.48
2022-10-25T20:41:48.201Z,85.48
2022-10-25T20:44:16.355Z,85.44
2022-10-25T20:46:44.429Z,85.62
2022-10-25T20:49:12.358Z,85.64
2022-10-25T20:51:41.750Z,86.29
2022-10-25T20:54:10.299Z,85.61
2022-10-25T20:56:39.574Z,86.46
2022-10-25T20:59:08.249Z,86.64
2022-10-25T21:01:36.296Z,86.70
2022-10-25T21:04:04.299Z,86.82
2022-10-25T21:06:32.438Z,86.99
2022-10-25T21:09:01.753Z,87.15
2022-10-25T21:11:29.839Z,87.32
2022-10-25T21:13:57.815Z,87.37
2022-10-25T21:16:25.706Z,86.96
2022-10-25T21:18:54.009Z,87.40
2022-10-25T21:21:22.225Z,86.89
2022-10-25T21:23:56.931Z,87.24
2022-10-25T21:26:27.356Z,87.11
2022-10-25T21:28:55.147Z,87.21
2022-10-25T21:31:23.017Z,87.39
2022-10-25T21:33:53.999Z,87.18
2022-10-25T21:36:23.138Z,87.74
2022-10-25T21:38:50.970Z,87.62
2022-10-25T21:41:23.407Z,87.82
2022-10-25T21:43:52.653Z,87.29
2022-10-25T21:46:22.612Z,87.52
2022-10-25T21:48:51.107Z,87.46
2022-10-25T21:51:19.359Z,87.09
2022-10-25T21:53:47.917Z,87.35
2022-10-25T21:56:17.881Z,87.39
2022-10-25T21:58:48.049Z,87.61
2022-10-25T22:01:18.747Z,87.29
2022-10-25T22:03:46.713Z,87.44
2022-10-25T22:06:16.597Z,87.46
2022-10-25T22:08:44.938Z,87.99
2022-10-25T22:11:15.114Z,87.95
2022-10-25T22:13:43.464Z,87.86
2022-10-25T22:16:14.387Z,88.44
2022-10-25T22:18:44.459Z,88.46
2022-10-25T22:21:13.576Z,88.10
2022-10-25T22:23:41.783Z,88.50
2022-10-25T22:26:12.603Z,88.74
2022-10-25T22:28:41.344Z,89.18
2022-10-25T22:31:11.555Z,89.35
2022-10-25T22:33:40.196Z,88.79
2022-10-25T22:36:12.456Z,88.93
2022-10-25T22:38:40.759Z,89.29
2022-10-25T22:41:11.122Z,88.80
2022-10-25T22:43:40.070Z,89.45
2022-10-25T22:46:10.503Z,89.57
2022-10-25T22:48:39.580Z,89.64
2022-10-25T22:51:09.684Z,90.24
2022-10-25T22:53:38.869Z,90.22
2022-10-25T22:56:09.216Z,90.39
2022-10-25T22:58:38.273Z,90.83
2022-10-25T23:01:08.344Z,90.67
2022-10-25T23:03:37.860Z,90.81
2022-10-25T23:06:07.176Z,90.66
2022-10-25T23:08:36.575Z,90.25
2022-10-25T23:11:07.054Z,90.34
2022-10-25T23:13:36.378Z,90.30
2022-10-25T23:16:05.468Z,90.47
2022-10-25T23:18:34.141Z,90.83
2022-10-25T23:21:03.923Z,91.50
2022-10-25T23:23:38.854Z,91.44
2022-10-25T23:28:40.908Z,91.57
2022-10-25T23:31:10.878Z,92.10
2022-10-25T23:33:42.824Z,92.11
2022-10-25T23:36:15.552Z,91.91
2022-10-25T23:38:45.081Z,92.02
2022-10-25T23:41:13.504Z,92.32
2022-10-25T23:43:41.518Z,91.97
2022-10-25T23:46:10.610Z,92.64
2022-10-25T23:48:38.677Z,93.55
2022-10-25T23:51:08.987Z,93.57
2022-10-25T23:53:37.807Z,93.98
2022-10-25T23:56:09.245Z,94.30
2022-10-25T23:58:37.639Z,94.67
